sensor_id;sensor_type;location;lat;lon;timestamp;temperature;humidity
16663;DHT22;8445;51.270;9.434;2023-08-01T00:00:07;15.80;99.90
16663;DHT22;8445;51.270;9.434;2023-08-01T00:02:38;15.90;99.90
16663;DHT22;8445;51.270;9.434;2023-08-01T00:05:05;15.80;99.90
16663;DHT22;8445;51.270;9.434;2023-08-01T00:07:31;15.90;99.90
16663;DHT22;8445;51.270;9.434;2023-08-01T00:09:57;15.90;99.90
16663;DHT22;8445;51.270;9.434;2023-08-01T00:12:24;15.90;99.90
16663;DHT22;8445;51.270;9.434;2023-08-01T00:14:50;15.90;99.90
16663;DHT22;8445;51.270;9.434;2023-08-01T00:17:16;15.90;99.90
16663;DHT22;8445;51.270;9.434;2023-08-01T00:19:42;15.90;99.90
16663;DHT22;8445;51.270;9.434;2023-08-01T00:22:08;15.90;99.90
16663;DHT22;8445;51.270;9.434;2023-08-01T00:24:35;15.90;99.90
16663;DHT22;8445;51.270;9.434;2023-08-01T00:27:01;15.90;99.90
16663;DHT22;8445;51.270;9.434;2023-08-01T00:29:30;15.90;99.90
16663;DHT22;8445;51.270;9.434;2023-08-01T00:31:56;15.90;99.90
16663;DHT22;8445;51.270;9.434;2023-08-01T00:34:22;15.90;99.90
16663;DHT22;8445;51.270;9.434;2023-08-01T00:36:48;15.90;99.90
16663;DHT22;8445;51.270;9.434;2023-08-01T00:39:14;15.90;99.90
16663;DHT22;8445;51.270;9.434;2023-08-01T00:41:40;16.00;99.90
16663;DHT22;8445;51.270;9.434;2023-08-01T00:44:06;15.90;99.90
16663;DHT22;8445;51.270;9.434;2023-08-01T00:46:32;16.00;99.90
16663;DHT22;8445;51.270;9.434;2023-08-01T00:48:59;16.00;99.90
16663;DHT22;8445;51.270;9.434;2023-08-01T00:51:26;16.00;99.90
16663;DHT22;8445;51.270;9.434;2023-08-01T00:53:53;16.00;99.90
16663;DHT22;8445;51.270;9.434;2023-08-01T00:56:19;16.00;99.90
16663;DHT22;8445;51.270;9.434;2023-08-01T00:58:45;16.00;99.90
16663;DHT22;8445;51.270;9.434;2023-08-01T01:01:11;16.00;99.90
16663;DHT22;8445;51.270;9.434;2023-08-01T01:03:38;16.00;99.90
16663;DHT22;8445;51.270;9.434;2023-08-01T01:06:27;16.00;99.90
16663;DHT22;8445;51.270;9.434;2023-08-01T01:08:57;16.00;99.90
16663;DHT22;8445;51.270;9.434;2023-08-01T01:11:23;16.00;99.90
16663;DHT22;8445;51.270;9.434;2023-08-01T01:13:49;16.00;99.90
16663;DHT22;8445;51.270;9.434;2023-08-01T01:16:19;16.00;99.90
16663;DHT22;8445;51.270;9.434;2023-08-01T01:18:45;16.00;99.90
16663;DHT22;8445;51.270;9.434;2023-08-01T01:21:11;16.10;99.90
16663;DHT22;8445;51.270;9.434;2023-08-01T01:23:38;16.10;99.90
16663;DHT22;8445;51.270;9.434;2023-08-01T01:26:06;16.10;99.90
16663;DHT22;8445;51.270;9.434;2023-08-01T01:28:35;16.10;99.90
16663;DHT22;8445;51.270;9.434;2023-08-01T01:31:02;16.10;99.90
16663;DHT22;8445;51.270;9.434;2023-08-01T01:33:28;16.10;99.90
16663;DHT22;8445;51.270;9.434;2023-08-01T01:35:54;16.10;99.90
16663;DHT22;8445;51.270;9.434;2023-08-01T01:38:20;16.10;99.90
16663;DHT22;8445;51.270;9.434;2023-08-01T01:40:46;16.10;99.90
16663;DHT22;8445;51.270;9.434;2023-08-01T01:43:12;16.20;99.90
16663;DHT22;8445;51.270;9.434;2023-08-01T01:45:38;16.20;99.90
16663;DHT22;8445;51.270;9.434;2023-08-01T01:48:04;16.30;99.90
16663;DHT22;8445;51.270;9.434;2023-08-01T01:50:30;16.20;99.90
16663;DHT22;8445;51.270;9.434;2023-08-01T01:52:56;16.20;99.90
16663;DHT22;8445;51.270;9.434;2023-08-01T01:55:22;16.20;99.90
16663;DHT22;8445;51.270;9.434;2023-08-01T01:57:48;16.20;99.90
16663;DHT22;8445;51.270;9.434;2023-08-01T02:00:15;16.20;99.90
16663;DHT22;8445;51.270;9.434;2023-08-01T02:02:41;16.10;99.90
16663;DHT22;8445;51.270;9.434;2023-08-01T02:05:07;16.20;99.90
16663;DHT22;8445;51.270;9.434;2023-08-01T02:07:33;16.20;99.90
16663;DHT22;8445;51.270;9.434;2023-08-01T02:10:00;16.10;99.90
16663;DHT22;8445;51.270;9.434;2023-08-01T02:12:30;16.10;99.90
16663;DHT22;8445;51.270;9.434;2023-08-01T02:14:57;16.10;99.90
16663;DHT22;8445;51.270;9.434;2023-08-01T02:17:24;16.10;99.90
16663;DHT22;8445;51.270;9.434;2023-08-01T02:19:50;16.20;99.90
16663;DHT22;8445;51.270;9.434;2023-08-01T02:22:16;16.30;99.90
16663;DHT22;8445;51.270;9.434;2023-08-01T02:24:42;16.30;99.90
16663;DHT22;8445;51.270;9.434;2023-08-01T02:27:08;16.20;99.90
16663;DHT22;8445;51.270;9.434;2023-08-01T02:29:34;16.20;99.90
16663;DHT22;8445;51.270;9.434;2023-08-01T02:32:00;16.20;99.90
16663;DHT22;8445;51.270;9.434;2023-08-01T02:34:27;16.10;99.90
16663;DHT22;8445;51.270;9.434;2023-08-01T02:36:53;16.10;99.90
16663;DHT22;8445;51.270;9.434;2023-08-01T02:39:19;16.10;99.90
16663;DHT22;8445;51.270;9.434;2023-08-01T02:41:45;16.10;99.90
16663;DHT22;8445;51.270;9.434;2023-08-01T02:44:11;16.10;99.90
16663;DHT22;8445;51.270;9.434;2023-08-01T02:46:36;16.00;99.90
16663;DHT22;8445;51.270;9.434;2023-08-01T02:49:02;16.00;99.90
16663;DHT22;8445;51.270;9.434;2023-08-01T02:51:28;16.00;99.90
16663;DHT22;8445;51.270;9.434;2023-08-01T02:53:54;16.00;99.90
16663;DHT22;8445;51.270;9.434;2023-08-01T02:56:20;16.00;99.90
16663;DHT22;8445;51.270;9.434;2023-08-01T02:58:46;16.00;99.90
16663;DHT22;8445;51.270;9.434;2023-08-01T03:01:12;16.00;99.90
16663;DHT22;8445;51.270;9.434;2023-08-01T03:03:39;16.00;99.90
16663;DHT22;8445;51.270;9.434;2023-08-01T03:06:05;16.00;99.90
16663;DHT22;8445;51.270;9.434;2023-08-01T03:08:31;16.00;99.90
16663;DHT22;8445;51.270;9.434;2023-08-01T03:10:58;16.00;99.90
16663;DHT22;8445;51.270;9.434;2023-08-01T03:13:24;16.00;99.90
16663;DHT22;8445;51.270;9.434;2023-08-01T03:15:49;16.00;99.90
16663;DHT22;8445;51.270;9.434;2023-08-01T03:18:15;15.90;99.90
16663;DHT22;8445;51.270;9.434;2023-08-01T03:20:44;15.90;99.90
16663;DHT22;8445;51.270;9.434;2023-08-01T03:23:10;15.90;99.90
16663;DHT22;8445;51.270;9.434;2023-08-01T03:25:36;15.90;99.90
16663;DHT22;8445;51.270;9.434;2023-08-01T03:28:03;15.90;99.90
16663;DHT22;8445;51.270;9.434;2023-08-01T03:30:31;15.90;99.90
16663;DHT22;8445;51.270;9.434;2023-08-01T03:32:59;16.00;99.90
16663;DHT22;8445;51.270;9.434;2023-08-01T03:35:28;16.00;99.90
16663;DHT22;8445;51.270;9.434;2023-08-01T03:37:54;16.00;99.90
16663;DHT22;8445;51.270;9.434;2023-08-01T03:40:20;16.00;99.90
16663;DHT22;8445;51.270;9.434;2023-08-01T03:42:45;15.90;99.90
16663;DHT22;8445;51.270;9.434;2023-08-01T03:45:11;15.90;99.90
16663;DHT22;8445;51.270;9.434;2023-08-01T03:47:37;15.90;99.90
16663;DHT22;8445;51.270;9.434;2023-08-01T03:50:03;15.90;99.90
16663;DHT22;8445;51.270;9.434;2023-08-01T03:52:29;15.90;99.90
16663;DHT22;8445;51.270;9.434;2023-08-01T03:54:56;15.80;99.90
16663;DHT22;8445;51.270;9.434;2023-08-01T03:57:22;15.90;99.90
16663;DHT22;8445;51.270;9.434;2023-08-01T03:59:48;15.90;99.90
16663;DHT22;8445;51.270;9.434;2023-08-01T04:02:13;15.90;99.90
16663;DHT22;8445;51.270;9.434;2023-08-01T04:04:39;15.90;99.90
16663;DHT22;8445;51.270;9.434;2023-08-01T04:07:05;15.90;99.90
16663;DHT22;8445;51.270;9.434;2023-08-01T04:09:31;15.90;99.90
16663;DHT22;8445;51.270;9.434;2023-08-01T04:11:57;15.90;99.90
16663;DHT22;8445;51.270;9.434;2023-08-01T04:14:23;15.90;99.90
16663;DHT22;8445;51.270;9.434;2023-08-01T04:16:49;15.90;99.90
16663;DHT22;8445;51.270;9.434;2023-08-01T04:19:14;15.90;99.90
16663;DHT22;8445;51.270;9.434;2023-08-01T04:21:40;16.00;99.90
16663;DHT22;8445;51.270;9.434;2023-08-01T04:24:06;16.00;99.90
16663;DHT22;8445;51.270;9.434;2023-08-01T04:26:32;16.10;99.90
16663;DHT22;8445;51.270;9.434;2023-08-01T04:28:58;16.10;99.90
16663;DHT22;8445;51.270;9.434;2023-08-01T04:31:24;16.10;99.90
16663;DHT22;8445;51.270;9.434;2023-08-01T04:33:50;16.10;99.90
16663;DHT22;8445;51.270;9.434;2023-08-01T04:36:15;16.10;99.90
16663;DHT22;8445;51.270;9.434;2023-08-01T04:38:41;16.10;99.90
16663;DHT22;8445;51.270;9.434;2023-08-01T04:41:07;16.10;99.90
16663;DHT22;8445;51.270;9.434;2023-08-01T04:43:33;16.10;99.90
16663;DHT22;8445;51.270;9.434;2023-08-01T04:45:59;16.10;99.90
16663;DHT22;8445;51.270;9.434;2023-08-01T04:48:25;16.10;99.90
16663;DHT22;8445;51.270;9.434;2023-08-01T04:50:51;16.10;99.90
16663;DHT22;8445;51.270;9.434;2023-08-01T04:53:16;16.20;99.90
16663;DHT22;8445;51.270;9.434;2023-08-01T04:55:42;16.20;99.90
16663;DHT22;8445;51.270;9.434;2023-08-01T04:58:08;16.20;99.90
16663;DHT22;8445;51.270;9.434;2023-08-01T05:00:34;16.20;99.90
16663;DHT22;8445;51.270;9.434;2023-08-01T05:03:00;16.20;99.90
16663;DHT22;8445;51.270;9.434;2023-08-01T05:05:26;16.30;99.90
16663;DHT22;8445;51.270;9.434;2023-08-01T05:07:52;16.30;99.90
16663;DHT22;8445;51.270;9.434;2023-08-01T05:10:18;16.40;99.90
16663;DHT22;8445;51.270;9.434;2023-08-01T05:12:44;16.40;99.90
16663;DHT22;8445;51.270;9.434;2023-08-01T05:15:10;16.40;99.90
16663;DHT22;8445;51.270;9.434;2023-08-01T05:17:36;16.50;99.90
16663;DHT22;8445;51.270;9.434;2023-08-01T05:20:02;16.60;99.90
16663;DHT22;8445;51.270;9.434;2023-08-01T05:22:29;16.60;99.90
16663;DHT22;8445;51.270;9.434;2023-08-01T05:24:55;16.80;99.90
16663;DHT22;8445;51.270;9.434;2023-08-01T05:27:21;16.90;99.90
16663;DHT22;8445;51.270;9.434;2023-08-01T05:29:47;16.90;99.90
16663;DHT22;8445;51.270;9.434;2023-08-01T05:32:13;17.00;99.90
16663;DHT22;8445;51.270;9.434;2023-08-01T05:34:39;17.20;99.90
16663;DHT22;8445;51.270;9.434;2023-08-01T05:37:05;17.20;99.90
16663;DHT22;8445;51.270;9.434;2023-08-01T05:39:31;17.20;99.90
16663;DHT22;8445;51.270;9.434;2023-08-01T05:42:42;17.20;99.90
16663;DHT22;8445;51.270;9.434;2023-08-01T05:45:08;17.10;99.90
16663;DHT22;8445;51.270;9.434;2023-08-01T05:47:36;17.10;99.90
16663;DHT22;8445;51.270;9.434;2023-08-01T05:50:03;17.00;99.90
16663;DHT22;8445;51.270;9.434;2023-08-01T05:52:30;16.90;99.90
16663;DHT22;8445;51.270;9.434;2023-08-01T05:54:55;16.80;99.90
16663;DHT22;8445;51.270;9.434;2023-08-01T05:57:21;16.80;99.90
16663;DHT22;8445;51.270;9.434;2023-08-01T05:59:47;16.80;99.90
16663;DHT22;8445;51.270;9.434;2023-08-01T06:02:13;16.90;99.90
16663;DHT22;8445;51.270;9.434;2023-08-01T06:04:39;17.00;99.90
16663;DHT22;8445;51.270;9.434;2023-08-01T06:07:05;16.90;99.90
16663;DHT22;8445;51.270;9.434;2023-08-01T06:09:31;16.80;99.90
16663;DHT22;8445;51.270;9.434;2023-08-01T06:11:57;16.80;99.90
16663;DHT22;8445;51.270;9.434;2023-08-01T06:14:23;16.80;99.90
16663;DHT22;8445;51.270;9.434;2023-08-01T06:16:49;16.80;99.90
16663;DHT22;8445;51.270;9.434;2023-08-01T06:19:15;16.90;99.90
16663;DHT22;8445;51.270;9.434;2023-08-01T06:21:41;17.00;99.90
16663;DHT22;8445;51.270;9.434;2023-08-01T06:24:07;17.00;99.90
16663;DHT22;8445;51.270;9.434;2023-08-01T06:26:34;17.10;99.90
16663;DHT22;8445;51.270;9.434;2023-08-01T06:29:00;17.10;99.90
16663;DHT22;8445;51.270;9.434;2023-08-01T06:31:26;17.20;99.90
16663;DHT22;8445;51.270;9.434;2023-08-01T06:33:52;17.20;99.90
16663;DHT22;8445;51.270;9.434;2023-08-01T06:36:18;17.30;99.90
16663;DHT22;8445;51.270;9.434;2023-08-01T06:38:44;17.30;99.90
16663;DHT22;8445;51.270;9.434;2023-08-01T06:41:10;17.50;99.90
16663;DHT22;8445;51.270;9.434;2023-08-01T06:43:36;17.60;99.90
16663;DHT22;8445;51.270;9.434;2023-08-01T06:46:05;17.60;99.90
16663;DHT22;8445;51.270;9.434;2023-08-01T06:48:31;17.60;99.90
16663;DHT22;8445;51.270;9.434;2023-08-01T06:51:02;17.70;99.90
16663;DHT22;8445;51.270;9.434;2023-08-01T06:53:30;17.80;99.90
16663;DHT22;8445;51.270;9.434;2023-08-01T06:55:56;17.90;99.90
16663;DHT22;8445;51.270;9.434;2023-08-01T06:58:22;18.00;99.90
16663;DHT22;8445;51.270;9.434;2023-08-01T07:00:48;18.10;99.90
16663;DHT22;8445;51.270;9.434;2023-08-01T07:03:14;18.20;99.90
16663;DHT22;8445;51.270;9.434;2023-08-01T07:05:40;18.40;99.90
16663;DHT22;8445;51.270;9.434;2023-08-01T07:08:05;18.70;99.90
16663;DHT22;8445;51.270;9.434;2023-08-01T07:10:34;18.90;99.90
16663;DHT22;8445;51.270;9.434;2023-08-01T07:13:01;19.10;99.90
16663;DHT22;8445;51.270;9.434;2023-08-01T07:15:31;19.20;99.90
16663;DHT22;8445;51.270;9.434;2023-08-01T07:17:58;19.20;99.90
16663;DHT22;8445;51.270;9.434;2023-08-01T07:20:23;19.30;99.90
16663;DHT22;8445;51.270;9.434;2023-08-01T07:22:49;19.30;99.90
16663;DHT22;8445;51.270;9.434;2023-08-01T07:25:15;19.50;99.90
16663;DHT22;8445;51.270;9.434;2023-08-01T07:27:42;19.70;99.90
16663;DHT22;8445;51.270;9.434;2023-08-01T07:30:08;19.80;99.90
16663;DHT22;8445;51.270;9.434;2023-08-01T07:32:38;19.80;99.90
16663;DHT22;8445;51.270;9.434;2023-08-01T07:35:05;20.00;99.90
16663;DHT22;8445;51.270;9.434;2023-08-01T07:37:33;20.10;99.90
16663;DHT22;8445;51.270;9.434;2023-08-01T07:39:59;20.20;99.90
16663;DHT22;8445;51.270;9.434;2023-08-01T07:42:25;20.30;99.90
16663;DHT22;8445;51.270;9.434;2023-08-01T07:44:51;20.00;99.90
16663;DHT22;8445;51.270;9.434;2023-08-01T07:47:17;19.90;99.90
16663;DHT22;8445;51.270;9.434;2023-08-01T07:49:43;19.90;99.90
16663;DHT22;8445;51.270;9.434;2023-08-01T07:52:09;20.00;99.90
16663;DHT22;8445;51.270;9.434;2023-08-01T07:54:35;20.20;99.90
16663;DHT22;8445;51.270;9.434;2023-08-01T07:57:01;20.30;99.90
16663;DHT22;8445;51.270;9.434;2023-08-01T07:59:27;20.40;99.90
16663;DHT22;8445;51.270;9.434;2023-08-01T08:01:53;20.50;99.90
16663;DHT22;8445;51.270;9.434;2023-08-01T08:04:19;20.60;99.90
16663;DHT22;8445;51.270;9.434;2023-08-01T08:06:45;20.30;99.90
16663;DHT22;8445;51.270;9.434;2023-08-01T08:09:11;20.00;99.90
16663;DHT22;8445;51.270;9.434;2023-08-01T08:11:37;19.60;99.90
16663;DHT22;8445;51.270;9.434;2023-08-01T08:14:02;19.40;99.90
16663;DHT22;8445;51.270;9.434;2023-08-01T08:16:29;19.40;99.90
16663;DHT22;8445;51.270;9.434;2023-08-01T08:18:55;19.30;99.90
16663;DHT22;8445;51.270;9.434;2023-08-01T08:21:21;19.10;99.90
16663;DHT22;8445;51.270;9.434;2023-08-01T08:23:47;19.10;99.90
16663;DHT22;8445;51.270;9.434;2023-08-01T08:26:13;19.30;99.90
16663;DHT22;8445;51.270;9.434;2023-08-01T08:28:39;19.90;99.90
16663;DHT22;8445;51.270;9.434;2023-08-01T08:31:07;20.30;99.90
16663;DHT22;8445;51.270;9.434;2023-08-01T08:33:33;20.70;99.90
16663;DHT22;8445;51.270;9.434;2023-08-01T08:35:59;21.20;99.90
16663;DHT22;8445;51.270;9.434;2023-08-01T08:38:25;21.50;99.90
16663;DHT22;8445;51.270;9.434;2023-08-01T08:43:37;21.30;99.80
16663;DHT22;8445;51.270;9.434;2023-08-01T08:46:04;21.20;99.90
16663;DHT22;8445;51.270;9.434;2023-08-01T08:48:31;21.30;99.90
16663;DHT22;8445;51.270;9.434;2023-08-01T08:50:59;21.30;99.60
16663;DHT22;8445;51.270;9.434;2023-08-01T08:53:26;21.50;94.60
16663;DHT22;8445;51.270;9.434;2023-08-01T08:55:52;21.50;96.20
16663;DHT22;8445;51.270;9.434;2023-08-01T08:58:19;21.40;96.10
16663;DHT22;8445;51.270;9.434;2023-08-01T09:00:46;21.30;96.80
16663;DHT22;8445;51.270;9.434;2023-08-01T09:03:12;21.30;97.40
16663;DHT22;8445;51.270;9.434;2023-08-01T09:05:47;21.50;97.30
16663;DHT22;8445;51.270;9.434;2023-08-01T09:08:21;21.70;97.50
16663;DHT22;8445;51.270;9.434;2023-08-01T09:10:52;22.10;96.50
16663;DHT22;8445;51.270;9.434;2023-08-01T09:13:18;22.30;97.00
16663;DHT22;8445;51.270;9.434;2023-08-01T09:15:46;22.40;96.90
16663;DHT22;8445;51.270;9.434;2023-08-01T09:18:13;22.50;96.30
16663;DHT22;8445;51.270;9.434;2023-08-01T09:20:47;22.50;96.10
16663;DHT22;8445;51.270;9.434;2023-08-01T09:23:14;22.50;95.60
16663;DHT22;8445;51.270;9.434;2023-08-01T09:25:42;22.50;95.40
16663;DHT22;8445;51.270;9.434;2023-08-01T09:28:16;22.50;95.00
16663;DHT22;8445;51.270;9.434;2023-08-01T09:31:06;22.40;93.40
16663;DHT22;8445;51.270;9.434;2023-08-01T09:33:42;22.30;94.00
16663;DHT22;8445;51.270;9.434;2023-08-01T09:36:09;22.00;91.90
16663;DHT22;8445;51.270;9.434;2023-08-01T09:38:37;21.90;94.00
16663;DHT22;8445;51.270;9.434;2023-08-01T09:41:04;21.80;93.20
16663;DHT22;8445;51.270;9.434;2023-08-01T09:43:35;21.70;93.30
16663;DHT22;8445;51.270;9.434;2023-08-01T09:46:06;21.70;93.40
16663;DHT22;8445;51.270;9.434;2023-08-01T09:48:33;21.90;94.00
16663;DHT22;8445;51.270;9.434;2023-08-01T09:51:13;22.20;94.20
16663;DHT22;8445;51.270;9.434;2023-08-01T09:53:52;22.60;92.90
16663;DHT22;8445;51.270;9.434;2023-08-01T09:56:23;22.80;92.40
16663;DHT22;8445;51.270;9.434;2023-08-01T09:58:54;23.10;92.50
16663;DHT22;8445;51.270;9.434;2023-08-01T10:01:24;23.40;90.90
16663;DHT22;8445;51.270;9.434;2023-08-01T10:03:52;23.40;90.60
16663;DHT22;8445;51.270;9.434;2023-08-01T10:06:28;23.30;90.30
16663;DHT22;8445;51.270;9.434;2023-08-01T10:08:58;23.10;90.00
16663;DHT22;8445;51.270;9.434;2023-08-01T10:11:26;23.10;89.50
16663;DHT22;8445;51.270;9.434;2023-08-01T10:13:56;23.20;87.90
16663;DHT22;8445;51.270;9.434;2023-08-01T10:16:22;23.10;86.20
16663;DHT22;8445;51.270;9.434;2023-08-01T10:18:49;23.10;86.40
16663;DHT22;8445;51.270;9.434;2023-08-01T10:21:17;23.00;87.30
16663;DHT22;8445;51.270;9.434;2023-08-01T10:23:45;22.80;83.20
16663;DHT22;8445;51.270;9.434;2023-08-01T10:26:12;23.00;77.20
16663;DHT22;8445;51.270;9.434;2023-08-01T10:28:50;23.00;80.50
16663;DHT22;8445;51.270;9.434;2023-08-01T10:31:19;22.90;81.20
16663;DHT22;8445;51.270;9.434;2023-08-01T10:33:48;22.70;81.50
16663;DHT22;8445;51.270;9.434;2023-08-01T10:36:25;22.60;84.00
16663;DHT22;8445;51.270;9.434;2023-08-01T10:38:56;22.70;79.30
16663;DHT22;8445;51.270;9.434;2023-08-01T10:41:29;22.80;81.30
16663;DHT22;8445;51.270;9.434;2023-08-01T10:46:52;22.70;76.40
16663;DHT22;8445;51.270;9.434;2023-08-01T10:51:59;22.80;80.70
16663;DHT22;8445;51.270;9.434;2023-08-01T10:54:26;22.60;80.90
16663;DHT22;8445;51.270;9.434;2023-08-01T10:56:55;22.40;80.50
16663;DHT22;8445;51.270;9.434;2023-08-01T10:59:26;22.20;80.70
16663;DHT22;8445;51.270;9.434;2023-08-01T11:01:57;22.20;82.00
16663;DHT22;8445;51.270;9.434;2023-08-01T11:04:24;22.50;83.70
16663;DHT22;8445;51.270;9.434;2023-08-01T11:06:52;22.90;83.20
16663;DHT22;8445;51.270;9.434;2023-08-01T11:09:29;23.00;80.20
16663;DHT22;8445;51.270;9.434;2023-08-01T11:11:59;22.90;76.70
16663;DHT22;8445;51.270;9.434;2023-08-01T11:14:28;22.70;76.20
16663;DHT22;8445;51.270;9.434;2023-08-01T11:16:55;22.50;75.40
16663;DHT22;8445;51.270;9.434;2023-08-01T11:19:27;22.30;76.40
16663;DHT22;8445;51.270;9.434;2023-08-01T11:21:55;22.10;76.10
16663;DHT22;8445;51.270;9.434;2023-08-01T11:24:24;22.00;75.40
16663;DHT22;8445;51.270;9.434;2023-08-01T11:26:55;22.00;75.00
16663;DHT22;8445;51.270;9.434;2023-08-01T11:29:23;22.00;74.40
16663;DHT22;8445;51.270;9.434;2023-08-01T11:31:57;22.10;75.30
16663;DHT22;8445;51.270;9.434;2023-08-01T11:34:24;22.40;76.20
16663;DHT22;8445;51.270;9.434;2023-08-01T11:36:50;22.70;75.50
16663;DHT22;8445;51.270;9.434;2023-08-01T11:39:17;23.00;76.20
16663;DHT22;8445;51.270;9.434;2023-08-01T11:41:44;23.10;73.50
16663;DHT22;8445;51.270;9.434;2023-08-01T11:44:10;23.00;74.00
16663;DHT22;8445;51.270;9.434;2023-08-01T11:46:38;22.70;74.10
16663;DHT22;8445;51.270;9.434;2023-08-01T11:49:06;22.50;72.90
16663;DHT22;8445;51.270;9.434;2023-08-01T11:51:41;22.30;73.70
16663;DHT22;8445;51.270;9.434;2023-08-01T11:54:08;22.20;75.50
16663;DHT22;8445;51.270;9.434;2023-08-01T11:56:37;22.20;76.50
16663;DHT22;8445;51.270;9.434;2023-08-01T11:59:27;22.30;76.20
16663;DHT22;8445;51.270;9.434;2023-08-01T12:01:58;22.30;75.40
16663;DHT22;8445;51.270;9.434;2023-08-01T12:04:27;22.30;75.20
16663;DHT22;8445;51.270;9.434;2023-08-01T12:06:54;22.40;73.20
16663;DHT22;8445;51.270;9.434;2023-08-01T12:09:22;22.40;73.80
16663;DHT22;8445;51.270;9.434;2023-08-01T12:11:58;22.40;73.40
16663;DHT22;8445;51.270;9.434;2023-08-01T12:14:29;22.50;69.90
16663;DHT22;8445;51.270;9.434;2023-08-01T12:16:55;22.30;71.40
16663;DHT22;8445;51.270;9.434;2023-08-01T12:19:21;22.10;72.80
16663;DHT22;8445;51.270;9.434;2023-08-01T12:21:48;21.90;73.40
16663;DHT22;8445;51.270;9.434;2023-08-01T12:24:14;22.00;75.30
16663;DHT22;8445;51.270;9.434;2023-08-01T12:26:40;22.30;75.00
16663;DHT22;8445;51.270;9.434;2023-08-01T12:29:06;22.40;74.40
16663;DHT22;8445;51.270;9.434;2023-08-01T12:31:33;22.50;73.90
16663;DHT22;8445;51.270;9.434;2023-08-01T12:33:59;22.70;72.80
16663;DHT22;8445;51.270;9.434;2023-08-01T12:36:25;22.90;72.40
16663;DHT22;8445;51.270;9.434;2023-08-01T12:38:50;23.20;72.20
16663;DHT22;8445;51.270;9.434;2023-08-01T12:41:16;23.50;72.90
16663;DHT22;8445;51.270;9.434;2023-08-01T12:43:42;24.00;72.90
16663;DHT22;8445;51.270;9.434;2023-08-01T12:46:08;24.40;69.50
16663;DHT22;8445;51.270;9.434;2023-08-01T12:48:34;24.80;63.90
16663;DHT22;8445;51.270;9.434;2023-08-01T12:51:00;24.70;65.50
16663;DHT22;8445;51.270;9.434;2023-08-01T12:53:26;24.80;65.30
16663;DHT22;8445;51.270;9.434;2023-08-01T12:55:57;24.80;65.00
16663;DHT22;8445;51.270;9.434;2023-08-01T12:58:23;24.90;61.20
16663;DHT22;8445;51.270;9.434;2023-08-01T13:00:49;25.00;60.20
16663;DHT22;8445;51.270;9.434;2023-08-01T13:03:14;24.90;61.30
16663;DHT22;8445;51.270;9.434;2023-08-01T13:05:42;24.90;61.90
16663;DHT22;8445;51.270;9.434;2023-08-01T13:08:08;24.60;60.70
16663;DHT22;8445;51.270;9.434;2023-08-01T13:10:36;24.60;61.90
16663;DHT22;8445;51.270;9.434;2023-08-01T13:13:03;24.50;62.40
16663;DHT22;8445;51.270;9.434;2023-08-01T13:15:30;24.70;63.50
16663;DHT22;8445;51.270;9.434;2023-08-01T13:17:56;25.00;62.70
16663;DHT22;8445;51.270;9.434;2023-08-01T13:20:22;25.30;63.50
16663;DHT22;8445;51.270;9.434;2023-08-01T13:22:50;25.50;62.60
16663;DHT22;8445;51.270;9.434;2023-08-01T13:25:17;25.30;59.20
16663;DHT22;8445;51.270;9.434;2023-08-01T13:27:44;25.00;60.60
16663;DHT22;8445;51.270;9.434;2023-08-01T13:30:10;24.70;60.90
16663;DHT22;8445;51.270;9.434;2023-08-01T13:32:40;24.50;60.30
16663;DHT22;8445;51.270;9.434;2023-08-01T13:35:06;24.20;61.20
16663;DHT22;8445;51.270;9.434;2023-08-01T13:37:32;23.90;60.70
16663;DHT22;8445;51.270;9.434;2023-08-01T13:39:58;23.50;61.00
16663;DHT22;8445;51.270;9.434;2023-08-01T13:42:24;22.90;63.20
16663;DHT22;8445;51.270;9.434;2023-08-01T13:44:50;22.50;64.90
16663;DHT22;8445;51.270;9.434;2023-08-01T13:47:16;22.30;66.40
16663;DHT22;8445;51.270;9.434;2023-08-01T13:49:41;22.00;67.00
16663;DHT22;8445;51.270;9.434;2023-08-01T13:52:07;21.80;68.60
16663;DHT22;8445;51.270;9.434;2023-08-01T13:54:33;21.70;70.30
16663;DHT22;8445;51.270;9.434;2023-08-01T13:57:00;21.70;70.70
16663;DHT22;8445;51.270;9.434;2023-08-01T13:59:26;22.00;70.40
16663;DHT22;8445;51.270;9.434;2023-08-01T14:01:52;22.40;70.80
16663;DHT22;8445;51.270;9.434;2023-08-01T14:04:19;23.00;66.50
16663;DHT22;8445;51.270;9.434;2023-08-01T14:06:46;23.30;66.20
16663;DHT22;8445;51.270;9.434;2023-08-01T14:09:12;23.50;64.70
16663;DHT22;8445;51.270;9.434;2023-08-01T14:11:38;23.40;63.60
16663;DHT22;8445;51.270;9.434;2023-08-01T14:14:04;23.40;65.00
16663;DHT22;8445;51.270;9.434;2023-08-01T14:16:30;23.60;64.60
16663;DHT22;8445;51.270;9.434;2023-08-01T14:18:58;23.60;64.40
16663;DHT22;8445;51.270;9.434;2023-08-01T14:21:24;23.40;64.60
16663;DHT22;8445;51.270;9.434;2023-08-01T14:23:50;23.10;64.40
16663;DHT22;8445;51.270;9.434;2023-08-01T14:26:16;23.00;66.30
16663;DHT22;8445;51.270;9.434;2023-08-01T14:28:42;22.90;66.10
16663;DHT22;8445;51.270;9.434;2023-08-01T14:31:08;22.90;67.40
16663;DHT22;8445;51.270;9.434;2023-08-01T14:33:34;22.80;66.70
16663;DHT22;8445;51.270;9.434;2023-08-01T14:36:01;22.80;67.30
16663;DHT22;8445;51.270;9.434;2023-08-01T14:38:27;22.70;66.90
16663;DHT22;8445;51.270;9.434;2023-08-01T14:40:53;22.80;65.60
16663;DHT22;8445;51.270;9.434;2023-08-01T14:43:19;22.70;66.10
16663;DHT22;8445;51.270;9.434;2023-08-01T14:45:45;22.30;66.20
16663;DHT22;8445;51.270;9.434;2023-08-01T14:48:11;22.10;67.10
16663;DHT22;8445;51.270;9.434;2023-08-01T14:50:37;22.00;68.30
16663;DHT22;8445;51.270;9.434;2023-08-01T14:53:04;22.20;69.10
16663;DHT22;8445;51.270;9.434;2023-08-01T14:55:32;22.50;70.40
16663;DHT22;8445;51.270;9.434;2023-08-01T14:57:59;23.00;69.00
16663;DHT22;8445;51.270;9.434;2023-08-01T15:00:25;23.40;67.50
16663;DHT22;8445;51.270;9.434;2023-08-01T15:02:51;23.60;67.10
16663;DHT22;8445;51.270;9.434;2023-08-01T15:05:17;23.50;65.10
16663;DHT22;8445;51.270;9.434;2023-08-01T15:07:43;23.20;64.90
16663;DHT22;8445;51.270;9.434;2023-08-01T15:10:09;22.90;66.00
16663;DHT22;8445;51.270;9.434;2023-08-01T15:12:36;22.70;66.20
16663;DHT22;8445;51.270;9.434;2023-08-01T15:15:03;22.50;65.50
16663;DHT22;8445;51.270;9.434;2023-08-01T15:17:30;22.30;64.40
16663;DHT22;8445;51.270;9.434;2023-08-01T15:19:56;22.10;64.20
16663;DHT22;8445;51.270;9.434;2023-08-01T15:22:22;21.90;64.20
16663;DHT22;8445;51.270;9.434;2023-08-01T15:24:48;21.70;65.50
16663;DHT22;8445;51.270;9.434;2023-08-01T15:27:14;21.60;64.60
16663;DHT22;8445;51.270;9.434;2023-08-01T15:29:40;21.50;64.70
16663;DHT22;8445;51.270;9.434;2023-08-01T15:32:06;21.40;65.20
16663;DHT22;8445;51.270;9.434;2023-08-01T15:34:32;21.60;65.10
16663;DHT22;8445;51.270;9.434;2023-08-01T15:36:58;21.70;64.30
16663;DHT22;8445;51.270;9.434;2023-08-01T15:39:24;21.80;63.70
16663;DHT22;8445;51.270;9.434;2023-08-01T15:41:50;21.80;63.10
16663;DHT22;8445;51.270;9.434;2023-08-01T15:44:16;21.90;62.70
16663;DHT22;8445;51.270;9.434;2023-08-01T15:46:41;21.90;62.20
16663;DHT22;8445;51.270;9.434;2023-08-01T15:49:07;22.00;61.50
16663;DHT22;8445;51.270;9.434;2023-08-01T15:51:34;22.00;60.70